Island Escape — C6SK4 — position and weather

sailwx.info

Track history (hours):
 
Tides and Currents Weather Stations Pressure Air Temp Water Temp Dewpoint Dewpoint Depression Visibility Wind Speed Wind Dir Waves Ship Positions

Island Escape

Operator: V Ships Leisure SAM

Last reported at 2015-Jul-03 23:33 UTC. Time now 2015-Jul-03 23:47 UTC.
Position N 42°15' E 010°34'.

Length 185 m; draft 7.3 m.

Type: Passenger vessel. MMSI: 311368000.

Date/timePositionNaut miles runAvg speedWind from/ knotsBaromVisibWave heightAir tempDewpointWater temp
2015-Jul-03 23:33N 42°15' E 010°34'1615.9
2015-Jul-03 22:33N 42°28' E 010°21'1515.5
2015-Jul-03 21:34N 42°40' E 010°07'1512.3
2015-Jul-03 20:18N 42°55' E 010°01'1215.7
2015-Jul-03 19:33N 43°06' E 010°04'1515.5
2015-Jul-03 18:33N 43°21' E 010°09'1312.8
2015-Jul-03 17:33N 43°33' E 010°17'0 0.4
2015-Jul-03 16:31N 43°33' E 010°18'0 0.0
2015-Jul-03 15:31N 43°33' E 010°18'0 0.0
2015-Jul-03 14:28N 43°33' E 010°18'0 0.0
2015-Jul-03 13:31N 43°33' E 010°18'0 0.0
2015-Jul-03 12:31N 43°33' E 010°18'0 0.0
2015-Jul-03 11:31N 43°33' E 010°18'0 0.0
2015-Jul-03 10:31N 43°33' E 010°18'0 0.0
2015-Jul-03 09:31N 43°33' E 010°18'0 0.0
2015-Jul-03 08:31N 43°33' E 010°18'0 0.0
2015-Jul-03 07:31N 43°33' E 010°18'0 0.0
2015-Jul-03 06:31N 43°33' E 010°18'0 0.0
2015-Jul-03 05:31N 43°33' E 010°18'0 0.0
2015-Jul-03 04:31N 43°33' E 010°18'6 5.9
2015-Jul-03 03:33N 43°29' E 010°12'1515.0
2015-Jul-03 02:33N 43°32' E 009°52'1313.3
2015-Jul-03 01:33N 43°36' E 009°34'1313.1
2015-Jul-03 00:33N 43°39' E 009°16'5 4.6
2015-Jul-02 23:33N 43°39' E 009°10'0 0.2
2015-Jul-02 22:33N 43°39' E 009°10'1 1.1
2015-Jul-02 21:33N 43°38' E 009°10'1010.0
2015-Jul-02 20:33N 43°40' E 008°56'1111.4
2015-Jul-02 19:33N 43°41' E 008°41'1211.6
2015-Jul-02 18:33N 43°43' E 008°25'1412.0
2015-Jul-02 17:22N 43°46' E 008°06'1012.0
2015-Jul-02 16:33N 43°48' E 007°52'3 3.1
2015-Jul-02 15:32N 43°49' E 007°48'0 0.0
2015-Jul-02 14:29N 43°49' E 007°48'0 0.0
2015-Jul-02 13:29N 43°49' E 007°48'0 0.0
2015-Jul-02 12:32N 43°49' E 007°48'0 0.0
2015-Jul-02 11:29N 43°49' E 007°48'0 0.0
2015-Jul-02 10:20N 43°49' E 007°48'0 0.0
2015-Jul-02 09:32N 43°49' E 007°48'0 0.0
2015-Jul-02 08:29N 43°49' E 007°48'0 0.0
2015-Jul-02 05:17N 43°48' E 007°48'710.3
2015-Jul-02 04:33N 43°43' E 007°41'1414.2
2015-Jul-02 03:33N 43°31' E 007°29'1312.6
2015-Jul-02 02:33N 43°21' E 007°19'1312.6
2015-Jul-02 01:32N 43°12' E 007°07'1212.1
2015-Jul-02 00:33N 43°03' E 006°56'1212.0
2015-Jul-01 23:33N 42°55' E 006°44'1211.9
2015-Jul-01 22:33N 42°46' E 006°34'1212.3
2015-Jul-01 21:33N 42°37' E 006°22'1312.5
2015-Jul-01 20:33N 42°29' E 006°09'1212.3
2015-Jul-01 19:34N 42°20' E 005°57'1212.5
2015-Jul-01 18:33N 42°11' E 005°45'1212.3
2015-Jul-01 17:33N 42°03' E 005°33'1212.3
2015-Jul-01 16:33N 41°54' E 005°21'1212.2
2015-Jul-01 15:33N 41°46' E 005°10'1212.0
2015-Jul-01 14:33N 41°38' E 004°58'1211.8
2015-Jul-01 13:33N 41°29' E 004°47'1211.9
2015-Jul-01 12:33N 41°21' E 004°35'1212.1
2015-Jul-01 11:33N 41°13' E 004°23'1212.3
2015-Jul-01 10:33N 41°04' E 004°12'1212.2
2015-Jul-01 09:33N 40°56' E 003°60'1313.0
2015-Jul-01 08:33N 40°47' E 003°48'1713.1
2015-Jul-01 07:13N 40°35' E 003°31'1113.0
2015-Jul-01 06:20N 40°27' E 003°20'1013.0
2015-Jul-01 05:33N 40°20' E 003°10'1313.0
2015-Jul-01 04:33N 40°11' E 002°58'1312.8
2015-Jul-01 03:33N 40°02' E 002°46'1312.6
2015-Jul-01 02:33N 39°53' E 002°34'1312.6
2015-Jul-01 01:33N 39°45' E 002°22'1212.4
2015-Jul-01 00:33N 39°35' E 002°12'1312.8
2015-Jun-30 23:33N 39°25' E 002°21'1211.7
2015-Jun-30 22:33N 39°23' E 002°36'1010.0
2015-Jun-30 21:33N 39°33' E 002°38'0 0.0
2015-Jun-30 20:33N 39°33' E 002°38'0 0.0
2015-Jun-30 19:33N 39°33' E 002°38'0 0.0
2015-Jun-30 18:33N 39°33' E 002°38'0 0.0
2015-Jun-30 17:33N 39°33' E 002°38'0 0.0
2015-Jun-30 16:33N 39°33' E 002°38'0 0.0
2015-Jun-30 15:30N 39°33' E 002°38'0 0.0
2015-Jun-30 14:30N 39°33' E 002°38'0 0.0
2015-Jun-30 13:33N 39°33' E 002°38'0 0.0
2015-Jun-30 12:33N 39°33' E 002°38'0 0.0
2015-Jun-30 11:33N 39°33' E 002°38'0 0.0
2015-Jun-30 10:24N 39°33' E 002°38'0 0.0
2015-Jun-30 09:33N 39°33' E 002°38'0 0.0
2015-Jun-30 08:33N 39°33' E 002°38'0 0.0
2015-Jun-30 07:33N 39°33' E 002°38'0 0.0
2015-Jun-30 06:33N 39°33' E 002°38'0 0.0
2015-Jun-30 05:33N 39°33' E 002°38'0 0.0
2015-Jun-30 04:33N 39°33' E 002°38'0 0.1
2015-Jun-30 03:33N 39°33' E 002°38'7 6.7
2015-Jun-30 02:33N 39°27' E 002°41'1414.4
2015-Jun-30 01:33N 39°13' E 002°45'1111.3
2015-Jun-30 00:33N 39°03' E 002°51'1212.1
2015-Jun-29 23:33N 39°03' E 003°07'1212.0
2015-Jun-29 22:33N 39°09' E 003°20'1313.0
2015-Jun-29 21:33N 39°18' E 003°33'1313.1
2015-Jun-29 20:32N 39°27' E 003°45'1313.1
2015-Jun-29 19:31N 39°35' E 003°59'56 4.0
2015-Jun-29 05:33N 40°14' E 004°51'4713.6
2015-Jun-29 02:07N 40°42' E 005°40'1013.8
2015-Jun-29 01:25N 40°49' E 005°49'1213.5
2015-Jun-29 00:33N 40°56' E 006°01'3714.8
2015-Jun-28 22:05N 41°20' E 006°38'2616.5
2015-Jun-28 20:30N 41°37' E 007°05'1616.4
2015-Jun-28 19:31N 41°47' E 007°21'3716.1
2015-Jun-28 17:13N 42°11' E 007°59'1116.0
2015-Jun-28 16:33N 42°18' E 008°10'1615.8
2015-Jun-28 15:33N 42°28' E 008°27'1515.1
2015-Jun-28 14:34N 42°36' E 008°45'2 1.7
2015-Jun-28 13:23N 42°34' E 008°46'0 0.0
2015-Jun-28 12:32N 42°34' E 008°46'38 3.8
2015-Jun-28 02:27N 43°05' E 009°16'1314.2
2015-Jun-28 01:33N 43°02' E 009°34'1615.2
2015-Jun-28 00:30N 42°52' E 009°50'1715.4
2015-Jun-27 23:23N 42°40' E 010°08'1315.2
2015-Jun-27 22:32N 42°31' E 010°19'1715.3
2015-Jun-27 21:27N 42°17' E 010°32'1315.2
2015-Jun-27 20:33N 42°07' E 010°45'1514.9
2015-Jun-27 19:33N 41°59' E 011°02'60 3.1
2015-Jun-27 00:30N 41°28' E 012°09'7214.4
2015-Jun-26 19:27N 40°51' E 013°32'1514.6
2015-Jun-26 18:24N 40°39' E 013°45'1214.3
2015-Jun-26 17:33N 40°38' E 014°01'1515.1
2015-Jun-26 16:33N 40°48' E 014°17'0 0.0
2015-Jun-26 04:33N 40°48' E 014°17'1515.4
2015-Jun-26 03:33N 40°37' E 014°02'1915.9
2015-Jun-26 02:21N 40°38' E 013°37'6015.7
2015-Jun-25 22:32N 40°45' E 012°18'1515.7
2015-Jun-25 21:33N 40°47' E 011°58'1916.1
2015-Jun-25 20:23N 40°49' E 011°33'2916.0
2015-Jun-25 18:33N 40°52' E 010°55'1615.8
2015-Jun-25 17:33N 40°54' E 010°34'48 4.3
2015-Jun-25 06:30N 40°55' E 009°31'0 0.0
2015-Jun-25 05:33N 40°55' E 009°31'88 8.4
2015-Jun-24 19:04N 40°52' E 007°34'713.6
2015-Jun-24 18:33N 40°49' E 007°26'2913.4
2015-Jun-24 16:25N 40°37' E 006°52'13812.7
2015-Jun-24 05:33N 39°32' E 004°12'2512.5
2015-Jun-24 03:33N 39°20' E 003°44'1212.3
2015-Jun-24 02:33N 39°14' E 003°30'1212.4
2015-Jun-24 01:33N 39°08' E 003°16'1212.4
2015-Jun-24 00:33N 39°03' E 003°02'  
Track history (hours):
 
Tides and Currents Weather Stations Pressure Air Temp Water Temp Dewpoint Dewpoint Depression Visibility Wind Speed Wind Dir Waves Ship Positions

Island Escape

Operator: V Ships Leisure SAM

Last reported at 2015-Jul-03 23:33 UTC. Time now 2015-Jul-03 23:47 UTC.
Position N 42°15' E 010°34'.

Length 185 m; draft 7.3 m.

Type: Passenger vessel. MMSI: 311368000.

Date/timePositionNaut miles runAvg speedWind from/ knotsBaromVisibWave heightAir tempDewpointWater temp
2015-Jul-03 23:33N 42°15' E 010°34'1615.9
2015-Jul-03 22:33N 42°28' E 010°21'1515.5
2015-Jul-03 21:34N 42°40' E 010°07'1512.3
2015-Jul-03 20:18N 42°55' E 010°01'1215.7
2015-Jul-03 19:33N 43°06' E 010°04'1515.5
2015-Jul-03 18:33N 43°21' E 010°09'1312.8
2015-Jul-03 17:33N 43°33' E 010°17'0 0.4
2015-Jul-03 16:31N 43°33' E 010°18'0 0.0
2015-Jul-03 15:31N 43°33' E 010°18'0 0.0
2015-Jul-03 14:28N 43°33' E 010°18'0 0.0
2015-Jul-03 13:31N 43°33' E 010°18'0 0.0
2015-Jul-03 12:31N 43°33' E 010°18'0 0.0
2015-Jul-03 11:31N 43°33' E 010°18'0 0.0
2015-Jul-03 10:31N 43°33' E 010°18'0 0.0
2015-Jul-03 09:31N 43°33' E 010°18'0 0.0
2015-Jul-03 08:31N 43°33' E 010°18'0 0.0
2015-Jul-03 07:31N 43°33' E 010°18'0 0.0
2015-Jul-03 06:31N 43°33' E 010°18'0 0.0
2015-Jul-03 05:31N 43°33' E 010°18'0 0.0
2015-Jul-03 04:31N 43°33' E 010°18'6 5.9
2015-Jul-03 03:33N 43°29' E 010°12'1515.0
2015-Jul-03 02:33N 43°32' E 009°52'1313.3
2015-Jul-03 01:33N 43°36' E 009°34'1313.1
2015-Jul-03 00:33N 43°39' E 009°16'5 4.6
2015-Jul-02 23:33N 43°39' E 009°10'0 0.2
2015-Jul-02 22:33N 43°39' E 009°10'1 1.1
2015-Jul-02 21:33N 43°38' E 009°10'1010.0
2015-Jul-02 20:33N 43°40' E 008°56'1111.4
2015-Jul-02 19:33N 43°41' E 008°41'1211.6
2015-Jul-02 18:33N 43°43' E 008°25'1412.0
2015-Jul-02 17:22N 43°46' E 008°06'1012.0
2015-Jul-02 16:33N 43°48' E 007°52'3 3.1
2015-Jul-02 15:32N 43°49' E 007°48'0 0.0
2015-Jul-02 14:29N 43°49' E 007°48'0 0.0
2015-Jul-02 13:29N 43°49' E 007°48'0 0.0
2015-Jul-02 12:32N 43°49' E 007°48'0 0.0
2015-Jul-02 11:29N 43°49' E 007°48'0 0.0
2015-Jul-02 10:20N 43°49' E 007°48'0 0.0
2015-Jul-02 09:32N 43°49' E 007°48'0 0.0
2015-Jul-02 08:29N 43°49' E 007°48'0 0.0
2015-Jul-02 05:17N 43°48' E 007°48'710.3
2015-Jul-02 04:33N 43°43' E 007°41'1414.2
2015-Jul-02 03:33N 43°31' E 007°29'1312.6
2015-Jul-02 02:33N 43°21' E 007°19'1312.6
2015-Jul-02 01:32N 43°12' E 007°07'1212.1
2015-Jul-02 00:33N 43°03' E 006°56'1212.0
2015-Jul-01 23:33N 42°55' E 006°44'1211.9
2015-Jul-01 22:33N 42°46' E 006°34'1212.3
2015-Jul-01 21:33N 42°37' E 006°22'1312.5
2015-Jul-01 20:33N 42°29' E 006°09'1212.3
2015-Jul-01 19:34N 42°20' E 005°57'1212.5
2015-Jul-01 18:33N 42°11' E 005°45'1212.3
2015-Jul-01 17:33N 42°03' E 005°33'1212.3
2015-Jul-01 16:33N 41°54' E 005°21'1212.2
2015-Jul-01 15:33N 41°46' E 005°10'1212.0
2015-Jul-01 14:33N 41°38' E 004°58'1211.8
2015-Jul-01 13:33N 41°29' E 004°47'1211.9
2015-Jul-01 12:33N 41°21' E 004°35'1212.1
2015-Jul-01 11:33N 41°13' E 004°23'1212.3
2015-Jul-01 10:33N 41°04' E 004°12'1212.2
2015-Jul-01 09:33N 40°56' E 003°60'1313.0
2015-Jul-01 08:33N 40°47' E 003°48'1713.1
2015-Jul-01 07:13N 40°35' E 003°31'1113.0
2015-Jul-01 06:20N 40°27' E 003°20'1013.0
2015-Jul-01 05:33N 40°20' E 003°10'1313.0
2015-Jul-01 04:33N 40°11' E 002°58'1312.8
2015-Jul-01 03:33N 40°02' E 002°46'1312.6
2015-Jul-01 02:33N 39°53' E 002°34'1312.6
2015-Jul-01 01:33N 39°45' E 002°22'1212.4
2015-Jul-01 00:33N 39°35' E 002°12'1312.8
2015-Jun-30 23:33N 39°25' E 002°21'1211.7
2015-Jun-30 22:33N 39°23' E 002°36'1010.0
2015-Jun-30 21:33N 39°33' E 002°38'0 0.0
2015-Jun-30 20:33N 39°33' E 002°38'0 0.0
2015-Jun-30 19:33N 39°33' E 002°38'0 0.0
2015-Jun-30 18:33N 39°33' E 002°38'0 0.0
2015-Jun-30 17:33N 39°33' E 002°38'0 0.0
2015-Jun-30 16:33N 39°33' E 002°38'0 0.0
2015-Jun-30 15:30N 39°33' E 002°38'0 0.0
2015-Jun-30 14:30N 39°33' E 002°38'0 0.0
2015-Jun-30 13:33N 39°33' E 002°38'0 0.0
2015-Jun-30 12:33N 39°33' E 002°38'0 0.0
2015-Jun-30 11:33N 39°33' E 002°38'0 0.0
2015-Jun-30 10:24N 39°33' E 002°38'0 0.0
2015-Jun-30 09:33N 39°33' E 002°38'0 0.0
2015-Jun-30 08:33N 39°33' E 002°38'0 0.0
2015-Jun-30 07:33N 39°33' E 002°38'0 0.0
2015-Jun-30 06:33N 39°33' E 002°38'0 0.0
2015-Jun-30 05:33N 39°33' E 002°38'0 0.0
2015-Jun-30 04:33N 39°33' E 002°38'0 0.1
2015-Jun-30 03:33N 39°33' E 002°38'7 6.7
2015-Jun-30 02:33N 39°27' E 002°41'1414.4
2015-Jun-30 01:33N 39°13' E 002°45'1111.3
2015-Jun-30 00:33N 39°03' E 002°51'1212.1
2015-Jun-29 23:33N 39°03' E 003°07'1212.0
2015-Jun-29 22:33N 39°09' E 003°20'1313.0
2015-Jun-29 21:33N 39°18' E 003°33'1313.1
2015-Jun-29 20:32N 39°27' E 003°45'1313.1
2015-Jun-29 19:31N 39°35' E 003°59'56 4.0
2015-Jun-29 05:33N 40°14' E 004°51'4713.6
2015-Jun-29 02:07N 40°42' E 005°40'1013.8
2015-Jun-29 01:25N 40°49' E 005°49'1213.5
2015-Jun-29 00:33N 40°56' E 006°01'3714.8
2015-Jun-28 22:05N 41°20' E 006°38'2616.5
2015-Jun-28 20:30N 41°37' E 007°05'1616.4
2015-Jun-28 19:31N 41°47' E 007°21'3716.1
2015-Jun-28 17:13N 42°11' E 007°59'1116.0
2015-Jun-28 16:33N 42°18' E 008°10'1615.8
2015-Jun-28 15:33N 42°28' E 008°27'1515.1
2015-Jun-28 14:34N 42°36' E 008°45'2 1.7
2015-Jun-28 13:23N 42°34' E 008°46'0 0.0
2015-Jun-28 12:32N 42°34' E 008°46'38 3.8
2015-Jun-28 02:27N 43°05' E 009°16'1314.2
2015-Jun-28 01:33N 43°02' E 009°34'1615.2
2015-Jun-28 00:30N 42°52' E 009°50'1715.4
2015-Jun-27 23:23N 42°40' E 010°08'1315.2
2015-Jun-27 22:32N 42°31' E 010°19'1715.3
2015-Jun-27 21:27N 42°17' E 010°32'1315.2
2015-Jun-27 20:33N 42°07' E 010°45'1514.9
2015-Jun-27 19:33N 41°59' E 011°02'60 3.1
2015-Jun-27 00:30N 41°28' E 012°09'7214.4
2015-Jun-26 19:27N 40°51' E 013°32'1514.6
2015-Jun-26 18:24N 40°39' E 013°45'1214.3
2015-Jun-26 17:33N 40°38' E 014°01'1515.1
2015-Jun-26 16:33N 40°48' E 014°17'0 0.0
2015-Jun-26 04:33N 40°48' E 014°17'1515.4
2015-Jun-26 03:33N 40°37' E 014°02'1915.9
2015-Jun-26 02:21N 40°38' E 013°37'6015.7
2015-Jun-25 22:32N 40°45' E 012°18'1515.7
2015-Jun-25 21:33N 40°47' E 011°58'1916.1
2015-Jun-25 20:23N 40°49' E 011°33'2916.0
2015-Jun-25 18:33N 40°52' E 010°55'1615.8
2015-Jun-25 17:33N 40°54' E 010°34'48 4.3
2015-Jun-25 06:30N 40°55' E 009°31'0 0.0
2015-Jun-25 05:33N 40°55' E 009°31'88 8.4
2015-Jun-24 19:04N 40°52' E 007°34'713.6
2015-Jun-24 18:33N 40°49' E 007°26'2913.4
2015-Jun-24 16:25N 40°37' E 006°52'13812.7
2015-Jun-24 05:33N 39°32' E 004°12'2512.5
2015-Jun-24 03:33N 39°20' E 003°44'1212.3
2015-Jun-24 02:33N 39°14' E 003°30'1212.4
2015-Jun-24 01:33N 39°08' E 003°16'1212.4
2015-Jun-24 00:33N 39°03' E 003°02'  

Dump ship's entire track history